Time;durP1;ratioP1;P1;durP2;ratioP2;P2;SDS_P1;SDS_P2;PMS_P1;PMS_P2;Temp;Humidity;BMP_temperature;BMP_pressure;BME280_temperature;BME280_humidity;BME280_pressure;Samples;Min_cycle;Max_cycle;Signal;HPM_P1;HPM_P2
2022/01/09 00:00:16;;;;;;;7.65;6.95;;;4.40;99.90;;;;;;5038805;28;20469;-81
2022/01/09 00:02:42;;;;;;;6.97;6.28;;;4.30;99.90;;;;;;5067626;28;20120;-81
2022/01/09 00:05:09;;;;;;;7.38;6.55;;;4.40;99.90;;;;;;5055549;28;20050;-80
2022/01/09 00:07:35;;;;;;;6.93;6.30;;;4.30;99.90;;;;;;5050979;28;20045;-80
2022/01/09 00:10:01;;;;;;;7.60;6.90;;;4.30;99.90;;;;;;5054242;28;20381;-81
2022/01/09 00:12:26;;;;;;;7.53;6.82;;;4.40;99.90;;;;;;5064144;28;20078;-80
2022/01/09 00:14:52;;;;;;;7.13;6.43;;;4.30;99.90;;;;;;5047061;28;20037;-81
2022/01/09 00:17:19;;;;;;;7.70;6.90;;;4.30;99.90;;;;;;5048913;28;20040;-82
2022/01/09 00:19:45;;;;;;;8.40;7.60;;;4.40;99.90;;;;;;5072002;28;20055;-80
2022/01/09 00:22:11;;;;;;;7.72;7.03;;;4.40;99.90;;;;;;5047711;28;20040;-82
2022/01/09 00:24:37;;;;;;;7.90;7.20;;;4.40;99.90;;;;;;5038905;28;20056;-81
2022/01/09 00:27:03;;;;;;;8.02;7.22;;;4.40;99.90;;;;;;5071983;28;20041;-81
2022/01/09 00:29:29;;;;;;;6.20;5.60;;;4.40;99.90;;;;;;5045557;28;20043;-81
2022/01/09 00:31:55;;;;;;;8.20;7.40;;;4.40;99.90;;;;;;5065516;28;20044;-80
2022/01/09 00:34:20;;;;;;;7.60;6.88;;;4.30;99.90;;;;;;5065346;28;20840;-81
2022/01/09 00:36:46;;;;;;;7.33;6.63;;;4.30;99.90;;;;;;5037952;28;20049;-80
2022/01/09 00:39:12;;;;;;;7.10;6.50;;;4.30;99.90;;;;;;5064261;28;20286;-80
2022/01/09 00:41:37;;;;;;;7.05;6.35;;;4.30;99.90;;;;;;5056122;28;20290;-82
2022/01/09 00:44:03;;;;;;;7.53;6.80;;;4.30;99.90;;;;;;5068016;28;20519;-81
2022/01/09 00:46:29;;;;;;;7.47;6.78;;;4.30;99.90;;;;;;5054351;28;20040;-81
2022/01/09 00:48:55;;;;;;;7.32;6.63;;;4.30;99.90;;;;;;5054765;28;20036;-81
2022/01/09 00:51:23;;;;;;;7.50;6.80;;;4.30;99.90;;;;;;5045858;28;20033;-81
2022/01/09 00:53:48;;;;;;;7.18;6.47;;;4.30;99.90;;;;;;5065827;28;20298;-80
2022/01/09 00:56:14;;;;;;;7.88;7.10;;;4.30;99.90;;;;;;5071714;28;20574;-81
2022/01/09 00:58:40;;;;;;;7.03;6.32;;;4.40;99.90;;;;;;5044254;28;20045;-81
2022/01/09 01:01:05;;;;;;;7.60;6.90;;;4.30;99.90;;;;;;5069140;28;20051;-80
2022/01/09 01:03:31;;;;;;;7.05;6.30;;;4.30;99.90;;;;;;5035624;28;20049;-80
2022/01/09 01:05:56;;;;;;;8.52;7.10;;;4.30;99.90;;;;;;5035390;28;20045;-81
2022/01/09 01:08:22;;;;;;;6.57;5.97;;;4.30;99.90;;;;;;5069879;28;20049;-81
2022/01/09 01:10:48;;;;;;;7.20;6.50;;;4.30;99.90;;;;;;5063780;28;20033;-81
2022/01/09 01:13:13;;;;;;;6.07;5.57;;;4.30;99.90;;;;;;5070062;28;20279;-81
2022/01/09 01:15:39;;;;;;;6.75;6.05;;;4.40;99.90;;;;;;5044700;28;20036;-81
2022/01/09 01:18:05;;;;;;;6.72;6.13;;;4.30;99.90;;;;;;5071754;28;20058;-81
2022/01/09 01:20:32;;;;;;;8.43;6.88;;;4.30;99.90;;;;;;5082403;28;20151;-81
2022/01/09 01:22:58;;;;;;;6.60;6.00;;;4.30;99.90;;;;;;5059480;28;20391;-80
2022/01/09 01:25:25;;;;;;;7.40;6.70;;;4.20;99.90;;;;;;5053546;28;20575;-80
2022/01/09 01:27:52;;;;;;;6.80;6.20;;;4.30;99.90;;;;;;5069813;28;20036;-81
2022/01/09 01:30:18;;;;;;;6.93;6.32;;;4.30;99.90;;;;;;5070637;28;20110;-80
2022/01/09 01:32:44;;;;;;;6.93;6.22;;;4.30;99.90;;;;;;5049568;28;20064;-81
2022/01/09 01:35:11;;;;;;;6.28;5.68;;;4.30;99.90;;;;;;5072268;28;20403;-81
2022/01/09 01:37:40;;;;;;;7.07;6.32;;;4.30;99.90;;;;;;5062667;28;20414;-81
2022/01/09 01:40:17;;;;;;;7.25;6.45;;;4.30;99.90;;;;;;5064470;28;20476;-81
2022/01/09 01:42:43;;;;;;;5.75;5.25;;;4.30;99.90;;;;;;5070748;28;20055;-81
2022/01/09 01:45:09;;;;;;;;;;;4.30;99.90;;;;;;5064906;28;20067;-81
2022/01/09 01:47:36;;;;;;;6.90;6.20;;;4.40;99.90;;;;;;5056830;28;19924;-81
2022/01/09 01:50:03;;;;;;;;;;;4.30;99.90;;;;;;5076441;28;20041;-81
2022/01/09 01:52:35;;;;;;;5.95;5.45;;;4.30;99.90;;;;;;5080610;28;19917;-81
2022/01/09 01:55:01;;;;;;;6.07;5.47;;;4.30;99.90;;;;;;5055045;28;20132;-81
2022/01/09 01:57:28;;;;;;;7.53;5.20;;;4.40;99.90;;;;;;5068536;28;20483;-80
2022/01/09 01:59:55;;;;;;;5.20;4.70;;;4.40;99.90;;;;;;5072224;28;20322;-81
2022/01/09 02:02:22;;;;;;;;;;;4.30;99.90;;;;;;5069100;28;20700;-81
2022/01/09 02:04:48;;;;;;;6.18;5.57;;;4.30;99.90;;;;;;5040464;28;19928;-81
2022/01/09 02:07:14;;;;;;;6.10;5.50;;;4.30;99.90;;;;;;5049721;28;20033;-82
2022/01/09 02:09:39;;;;;;;5.88;5.30;;;4.30;99.90;;;;;;5046223;28;20045;-83
2022/01/09 02:12:06;;;;;;;5.20;4.70;;;4.30;99.90;;;;;;5056392;28;20036;-81
2022/01/09 02:14:38;;;;;;;5.18;4.68;;;4.40;99.90;;;;;;5068170;28;20102;-81
2022/01/09 02:17:06;;;;;;;4.43;4.03;;;4.30;99.90;;;;;;5034891;28;20048;-82
2022/01/09 02:19:32;;;;;;;4.85;4.35;;;4.40;99.90;;;;;;5078578;28;20048;-81
2022/01/09 02:21:59;;;;;;;6.65;5.95;;;4.30;99.90;;;;;;5001907;28;20164;-81
2022/01/09 02:24:25;;;;;;;6.00;5.40;;;4.30;99.90;;;;;;5049990;28;20048;-81
2022/01/09 02:26:52;;;;;;;5.65;5.15;;;4.30;99.90;;;;;;5053274;28;20045;-81
2022/01/09 02:29:18;;;;;;;5.22;4.72;;;4.40;99.90;;;;;;5059122;28;20513;-81
2022/01/09 02:31:45;;;;;;;;;;;4.40;99.90;;;;;;5060966;28;20066;-82
2022/01/09 02:34:11;;;;;;;6.60;5.90;;;4.40;99.90;;;;;;5067243;28;20026;-81
2022/01/09 02:36:37;;;;;;;7.07;6.32;;;4.50;99.90;;;;;;5069638;28;20048;-82
2022/01/09 02:39:03;;;;;;;6.80;6.10;;;4.50;99.90;;;;;;5056201;28;20643;-81
2022/01/09 02:41:29;;;;;;;;;;;4.50;99.90;;;;;;5052259;28;20041;-81
2022/01/09 02:43:54;;;;;;;6.15;5.53;;;4.50;99.90;;;;;;5048847;28;20279;-80
2022/01/09 02:49:05;;;;;;;5.20;4.68;;;4.70;99.90;;;;;;5055285;28;20546;-81
2022/01/09 02:51:31;;;;;;;4.40;3.72;;;4.80;99.90;;;;;;5067037;28;20478;-81
2022/01/09 02:55:03;;;;;;;4.55;3.72;;;4.80;99.90;;;;;;5048050;28;20040;-81
2022/01/09 02:56:42;;;;;;;4.57;3.65;;;4.90;99.90;;;;;;5051990;28;20103;-82
2022/01/09 02:59:08;;;;;;;8.00;5.97;;;4.80;99.90;;;;;;5056034;28;20044;-81
2022/01/09 03:01:34;;;;;;;6.78;5.30;;;4.80;99.90;;;;;;5061366;28;20314;-81
2022/01/09 03:03:59;;;;;;;5.75;5.10;;;4.80;99.90;;;;;;5056414;28;20131;-81
2022/01/09 03:06:25;;;;;;;5.30;4.30;;;4.80;99.90;;;;;;5057250;28;20651;-81
2022/01/09 03:08:50;;;;;;;5.90;4.40;;;4.90;99.90;;;;;;5071075;28;20033;-82
2022/01/09 03:11:16;;;;;;;5.22;3.78;;;4.90;99.90;;;;;;5086252;28;20089;-82
2022/01/09 03:13:42;;;;;;;4.65;3.40;;;4.90;99.90;;;;;;5060591;28;20035;-83
2022/01/09 03:16:07;;;;;;;7.50;4.60;;;5.00;99.90;;;;;;5062703;28;20044;-82
2022/01/09 03:18:33;;;;;;;7.27;3.93;;;5.00;99.90;;;;;;5100256;28;20487;-82
2022/01/09 03:20:59;;;;;;;6.70;4.37;;;5.00;99.90;;;;;;5067900;28;20647;-82
2022/01/09 03:23:25;;;;;;;9.63;5.10;;;5.10;99.90;;;;;;5055547;28;20915;-82
2022/01/09 03:25:51;;;;;;;;;;;5.10;99.90;;;;;;5076763;28;20037;-83
2022/01/09 03:28:16;;;;;;;14.23;5.05;;;5.10;99.90;;;;;;5071395;28;19917;-83
2022/01/09 03:30:42;;;;;;;13.03;5.27;;;5.30;99.90;;;;;;5069728;28;20137;-81
2022/01/09 03:33:08;;;;;;;10.75;3.92;;;5.20;99.90;;;;;;5055811;28;20366;-83
2022/01/09 03:35:33;;;;;;;15.05;3.42;;;5.30;99.90;;;;;;5068151;28;20037;-84
2022/01/09 03:37:59;;;;;;;15.93;4.07;;;5.30;99.90;;;;;;5078818;28;20037;-82
2022/01/09 03:40:26;;;;;;;17.83;3.70;;;5.40;99.90;;;;;;5065041;28;20033;-82
2022/01/09 03:42:53;;;;;;;24.98;4.20;;;5.60;99.90;;;;;;5057311;28;20056;-84
2022/01/09 03:45:19;;;;;;;19.27;4.13;;;5.60;99.90;;;;;;5056392;28;20045;-83
2022/01/09 03:47:45;;;;;;;25.17;4.45;;;5.80;99.90;;;;;;5073168;28;20072;-82
2022/01/09 03:50:13;;;;;;;36.97;4.65;;;5.80;99.90;;;;;;5057097;28;20048;-82
2022/01/09 03:52:40;;;;;;;38.45;5.97;;;6.00;99.90;;;;;;5070242;28;20067;-83
2022/01/09 03:55:08;;;;;;;32.17;6.45;;;6.00;99.90;;;;;;5054051;28;20037;-83
2022/01/09 03:57:34;;;;;;;39.95;5.63;;;6.10;99.90;;;;;;5077113;28;20045;-83
2022/01/09 04:00:00;;;;;;;35.20;5.88;;;6.10;99.90;;;;;;5076711;28;20483;-83
2022/01/09 04:02:26;;;;;;;36.38;5.10;;;6.20;99.90;;;;;;5081435;28;20410;-82
2022/01/09 04:04:51;;;;;;;34.67;6.43;;;6.20;99.90;;;;;;5074286;28;20041;-83
2022/01/09 04:07:17;;;;;;;33.05;5.85;;;6.30;99.90;;;;;;5023924;28;20043;-82
2022/01/09 04:09:45;;;;;;;33.92;5.60;;;6.30;99.90;;;;;;5040198;28;20047;-82
2022/01/09 04:12:15;;;;;;;31.55;5.05;;;6.30;99.90;;;;;;5073195;28;20044;-83
2022/01/09 04:14:47;;;;;;;36.42;5.63;;;6.20;99.90;;;;;;5056614;28;20075;-82
2022/01/09 04:17:44;;;;;;;40.45;5.43;;;6.40;99.90;;;;;;5053670;28;20416;-82
2022/01/09 04:20:04;;;;;;;32.90;4.55;;;6.40;99.90;;;;;;5052677;28;20663;-81
2022/01/09 04:22:30;;;;;;;31.25;5.20;;;6.40;99.90;;;;;;5063662;28;20041;-82
2022/01/09 04:24:56;;;;;;;30.08;5.15;;;6.30;99.90;;;;;;5085856;28;20063;-82
2022/01/09 04:27:21;;;;;;;28.95;4.53;;;6.40;99.90;;;;;;5053575;28;20040;-82
2022/01/09 04:29:47;;;;;;;26.42;4.90;;;6.30;99.90;;;;;;5071854;28;20032;-81
2022/01/09 04:32:12;;;;;;;30.88;4.93;;;6.40;99.90;;;;;;5056694;28;20058;-81
2022/01/09 04:34:38;;;;;;;30.25;4.20;;;6.30;99.90;;;;;;5065776;28;20052;-81
2022/01/09 04:37:04;;;;;;;32.20;5.43;;;6.40;99.90;;;;;;5072843;28;20052;-82
2022/01/09 04:39:30;;;;;;;37.85;4.90;;;6.40;99.90;;;;;;5054724;28;20110;-82
2022/01/09 04:41:56;;;;;;;25.45;4.28;;;6.40;99.90;;;;;;5066554;28;20087;-82
2022/01/09 04:44:23;;;;;;;28.60;4.40;;;6.30;99.90;;;;;;5071851;28;20044;-81
2022/01/09 04:46:56;;;;;;;;;;;6.40;99.90;;;;;;5072127;28;20064;-82
2022/01/09 04:49:25;;;;;;;29.50;4.03;;;6.40;99.90;;;;;;5072501;28;19923;-82
2022/01/09 04:51:51;;;;;;;22.35;4.13;;;6.30;99.90;;;;;;5073164;28;20148;-82
2022/01/09 04:54:17;;;;;;;28.75;3.90;;;6.40;99.90;;;;;;5070830;28;20441;-82
2022/01/09 04:56:42;;;;;;;35.30;5.13;;;6.30;99.90;;;;;;5059598;28;20155;-81
2022/01/09 04:59:08;;;;;;;31.10;4.28;;;6.40;99.90;;;;;;5054133;28;20041;-82
2022/01/09 05:01:34;;;;;;;23.38;4.45;;;6.40;99.90;;;;;;5066750;28;20069;-82
2022/01/09 05:03:59;;;;;;;25.33;4.30;;;6.40;99.90;;;;;;5073026;28;20143;-82
2022/01/09 05:06:25;;;;;;;23.58;4.47;;;6.40;99.90;;;;;;5106217;28;20056;-82
2022/01/09 05:08:51;;;;;;;28.33;4.18;;;6.40;99.90;;;;;;5048098;28;20041;-83
2022/01/09 05:11:17;;;;;;;30.15;4.63;;;6.50;99.90;;;;;;5054806;28;20037;-82
2022/01/09 05:13:42;;;;;;;22.50;3.90;;;6.40;99.90;;;;;;5071982;28;20077;-82
2022/01/09 05:16:08;;;;;;;26.17;3.95;;;6.40;99.90;;;;;;5047096;28;20116;-82
2022/01/09 05:18:50;;;;;;;24.05;3.63;;;6.40;99.90;;;;;;5075915;28;20042;-82
2022/01/09 05:21:17;;;;;;;22.75;4.03;;;6.40;99.90;;;;;;5066292;28;20109;-82
2022/01/09 05:23:43;;;;;;;22.38;3.97;;;6.30;99.90;;;;;;5058417;28;20127;-81
2022/01/09 05:26:08;;;;;;;22.35;3.40;;;6.40;99.90;;;;;;5061546;28;20040;-82
2022/01/09 05:28:34;;;;;;;25.25;3.88;;;6.30;99.90;;;;;;5055143;28;20037;-82
2022/01/09 05:31:00;;;;;;;26.02;3.40;;;6.30;99.90;;;;;;5063577;28;20041;-81
2022/01/09 05:33:26;;;;;;;24.95;4.03;;;6.20;99.90;;;;;;5051779;28;20056;-81
2022/01/09 05:35:51;;;;;;;29.42;4.97;;;6.30;99.90;;;;;;5077174;28;20037;-81
2022/01/09 05:38:18;;;;;;;25.70;3.72;;;6.20;99.90;;;;;;5085352;28;20040;-81
2022/01/09 05:40:44;;;;;;;28.65;4.28;;;6.20;99.90;;;;;;5055895;28;20089;-82
2022/01/09 05:43:11;;;;;;;;;;;6.20;99.90;;;;;;5055859;28;20437;-82
2022/01/09 05:45:37;;;;;;;22.35;3.55;;;6.20;99.90;;;;;;5058898;28;19947;-81
2022/01/09 05:48:03;;;;;;;27.23;3.72;;;6.20;99.90;;;;;;5052381;28;20483;-82
2022/01/09 05:50:29;;;;;;;25.88;3.72;;;6.20;99.90;;;;;;5070924;28;20041;-82
2022/01/09 05:52:54;;;;;;;25.00;3.25;;;6.20;99.90;;;;;;5053512;28;20073;-82
2022/01/09 05:55:21;;;;;;;22.65;3.60;;;6.10;99.90;;;;;;5047899;28;20051;-81
2022/01/09 05:57:46;;;;;;;;;;;6.20;99.90;;;;;;5072102;28;20037;-81
2022/01/09 06:00:14;;;;;;;21.50;3.40;;;6.10;99.90;;;;;;5065831;28;19923;-81
2022/01/09 06:02:40;;;;;;;23.67;3.83;;;6.10;99.90;;;;;;5068030;28;20051;-81
2022/01/09 06:05:07;;;;;;;24.60;4.03;;;6.10;99.90;;;;;;5071712;28;20032;-83
2022/01/09 06:07:33;;;;;;;23.27;3.30;;;6.10;99.90;;;;;;5036872;28;20805;-83
2022/01/09 06:09:59;;;;;;;22.70;3.95;;;6.10;99.90;;;;;;5080599;28;20149;-83
2022/01/09 06:12:24;;;;;;;26.17;3.92;;;6.10;99.90;;;;;;5097903;28;20087;-83
2022/01/09 06:14:51;;;;;;;15.70;3.00;;;6.10;99.90;;;;;;5053500;28;20047;-81
2022/01/09 06:17:17;;;;;;;26.52;3.47;;;6.10;99.90;;;;;;5071106;28;20472;-83
2022/01/09 06:19:43;;;;;;;26.05;4.47;;;6.00;99.90;;;;;;5052153;28;20056;-83
2022/01/09 06:22:09;;;;;;;21.38;3.42;;;6.10;99.90;;;;;;5082260;28;20059;-82
2022/01/09 06:24:34;;;;;;;21.95;3.58;;;6.00;99.90;;;;;;5066284;28;20472;-82
2022/01/09 06:27:00;;;;;;;21.65;3.15;;;6.10;99.90;;;;;;5049819;28;20051;-82
2022/01/09 06:29:26;;;;;;;23.70;3.50;;;6.00;99.90;;;;;;5059247;28;20147;-83
2022/01/09 06:31:52;;;;;;;21.50;3.25;;;6.00;99.90;;;;;;5063706;28;20045;-82
2022/01/09 06:34:18;;;;;;;23.48;3.75;;;6.00;99.90;;;;;;5050023;28;20109;-83
2022/01/09 06:36:44;;;;;;;23.27;2.85;;;6.00;99.90;;;;;;5054456;28;20048;-82
2022/01/09 06:39:09;;;;;;;23.45;4.30;;;6.00;99.90;;;;;;5058936;28;20040;-83
2022/01/09 06:41:35;;;;;;;17.23;2.67;;;6.00;99.90;;;;;;5071346;28;20040;-82
2022/01/09 06:44:01;;;;;;;15.35;2.65;;;6.00;99.90;;;;;;5053925;28;20298;-82
2022/01/09 06:46:26;;;;;;;24.13;3.53;;;6.00;99.90;;;;;;5044422;28;20044;-80
2022/01/09 06:48:52;;;;;;;21.13;3.20;;;5.90;99.90;;;;;;5072006;28;20394;-82
2022/01/09 06:51:18;;;;;;;15.98;2.90;;;5.90;99.90;;;;;;5066505;28;20045;-81
2022/01/09 06:53:44;;;;;;;13.70;2.30;;;5.90;99.90;;;;;;5088103;28;20043;-81
2022/01/09 06:56:09;;;;;;;20.25;3.00;;;5.90;99.90;;;;;;5071333;28;20039;-82
2022/01/09 06:58:37;;;;;;;23.52;3.03;;;5.80;99.90;;;;;;5060001;28;20443;-83
2022/01/09 07:01:04;;;;;;;19.98;2.55;;;5.90;99.90;;;;;;5044328;28;20041;-82
2022/01/09 07:03:30;;;;;;;18.27;2.90;;;5.80;99.90;;;;;;5072920;28;20039;-82
2022/01/09 07:05:56;;;;;;;19.60;2.47;;;5.80;99.90;;;;;;5057905;28;20040;-81
2022/01/09 07:08:22;;;;;;;17.88;2.35;;;5.80;99.90;;;;;;5066199;28;20041;-83
2022/01/09 07:10:47;;;;;;;15.40;2.75;;;5.80;99.90;;;;;;5064523;28;20079;-82
2022/01/09 07:13:15;;;;;;;23.20;2.70;;;5.80;99.90;;;;;;5057542;28;20168;-83
2022/01/09 07:15:41;;;;;;;20.25;2.58;;;5.70;99.90;;;;;;5053962;28;20037;-83
2022/01/09 07:18:07;;;;;;;15.68;2.50;;;5.70;99.90;;;;;;5071241;28;20111;-82
2022/01/09 07:20:34;;;;;;;18.45;2.40;;;5.70;99.90;;;;;;5088032;28;20049;-83
2022/01/09 07:23:00;;;;;;;16.02;2.75;;;5.70;99.90;;;;;;5073499;28;20503;-82
2022/01/09 07:25:26;;;;;;;22.85;3.17;;;5.70;99.90;;;;;;5058551;28;20068;-83
2022/01/09 07:27:51;;;;;;;20.40;3.13;;;5.70;99.90;;;;;;5057437;28;20561;-80
2022/01/09 07:30:17;;;;;;;18.13;2.80;;;5.70;99.90;;;;;;5054558;28;20040;-81
2022/01/09 07:32:43;;;;;;;18.13;2.58;;;5.70;99.90;;;;;;5056219;28;20064;-83
2022/01/09 07:35:09;;;;;;;14.48;2.30;;;5.70;99.90;;;;;;5072497;28;20352;-82
2022/01/09 07:37:35;;;;;;;22.70;3.13;;;5.70;99.90;;;;;;5056640;28;20040;-82
2022/01/09 07:40:02;;;;;;;19.60;2.25;;;5.60;99.90;;;;;;5067868;28;20511;-83
2022/01/09 07:42:28;;;;;;;21.67;2.83;;;5.60;99.90;;;;;;5065944;28;20096;-84
2022/01/09 07:44:53;;;;;;;16.75;3.08;;;5.60;99.90;;;;;;5055182;28;20072;-83
2022/01/09 07:47:19;;;;;;;16.88;2.40;;;5.50;99.90;;;;;;5046690;28;20040;-84
2022/01/09 07:49:45;;;;;;;16.77;3.00;;;5.50;99.90;;;;;;5063619;28;20041;-85
2022/01/09 07:52:10;;;;;;;19.02;2.53;;;5.50;99.90;;;;;;5092533;28;20092;-83
2022/01/09 07:54:36;;;;;;;15.45;2.10;;;5.50;99.90;;;;;;5073427;28;20044;-84
2022/01/09 07:57:02;;;;;;;22.85;2.95;;;5.40;99.90;;;;;;5068740;28;20102;-84
2022/01/09 07:59:27;;;;;;;15.02;2.38;;;5.40;99.90;;;;;;5074024;28;20100;-83
2022/01/09 08:01:53;;;;;;;13.82;2.47;;;5.40;99.90;;;;;;5074599;28;20040;-84
2022/01/09 08:04:19;;;;;;;15.27;2.15;;;5.40;99.90;;;;;;5056939;28;20103;-83
2022/01/09 08:06:45;;;;;;;18.58;2.42;;;5.40;99.90;;;;;;5081126;28;20139;-81
2022/01/09 08:09:11;;;;;;;12.23;2.15;;;5.30;99.90;;;;;;5045492;28;20057;-81
2022/01/09 08:11:36;;;;;;;18.60;2.95;;;5.30;99.90;;;;;;5079765;28;20436;-82
2022/01/09 08:14:02;;;;;;;9.90;2.13;;;5.30;99.90;;;;;;5050383;28;20203;-82
2022/01/09 08:16:28;;;;;;;14.02;2.60;;;5.30;99.90;;;;;;5070813;28;20390;-81
2022/01/09 08:18:54;;;;;;;23.48;2.33;;;5.30;99.90;;;;;;5060981;28;20045;-81
2022/01/09 08:21:20;;;;;;;14.93;2.10;;;5.20;99.90;;;;;;5063134;28;20043;-82
2022/01/09 08:23:50;;;;;;;11.77;2.22;;;5.30;99.90;;;;;;5076953;28;20056;-81
2022/01/09 08:26:17;;;;;;;16.80;2.10;;;5.20;99.90;;;;;;5059997;28;20090;-84
2022/01/09 08:28:46;;;;;;;;;;;5.30;99.90;;;;;;5069496;28;20044;-83
2022/01/09 08:31:12;;;;;;;12.23;2.40;;;5.30;99.90;;;;;;5069925;28;20003;-83
2022/01/09 08:33:38;;;;;;;11.68;2.45;;;5.30;99.90;;;;;;5060473;28;20561;-83
2022/01/09 08:36:05;;;;;;;11.32;1.80;;;5.20;99.90;;;;;;5055841;28;20044;-82
2022/01/09 08:38:31;;;;;;;14.52;2.80;;;5.20;99.90;;;;;;5051606;28;20052;-80
2022/01/09 08:40:56;;;;;;;19.85;2.55;;;5.20;99.90;;;;;;5049804;28;20447;-81
2022/01/09 08:43:23;;;;;;;18.15;2.55;;;5.30;99.90;;;;;;5072946;28;20109;-83
2022/01/09 08:45:48;;;;;;;;;;;5.30;99.90;;;;;;5065878;28;20123;-81
2022/01/09 08:48:15;;;;;;;14.18;1.98;;;5.20;99.90;;;;;;5098701;28;20003;-81
2022/01/09 08:50:41;;;;;;;14.05;2.17;;;5.30;99.90;;;;;;5067364;28;20041;-79
2022/01/09 08:53:07;;;;;;;12.25;2.05;;;5.30;99.90;;;;;;5059089;28;20150;-83
2022/01/09 08:55:32;;;;;;;11.23;2.00;;;5.30;99.90;;;;;;5061582;28;20487;-82
2022/01/09 08:57:58;;;;;;;16.80;2.17;;;5.20;99.90;;;;;;5062199;28;20044;-80
2022/01/09 09:00:27;;;;;;;11.70;1.90;;;5.30;99.90;;;;;;5059179;28;20102;-81
2022/01/09 09:02:53;;;;;;;14.65;2.92;;;5.30;99.90;;;;;;5059880;28;20040;-81
2022/01/09 09:05:20;;;;;;;16.13;2.58;;;5.30;99.90;;;;;;5062763;28;20048;-82
2022/01/09 09:07:46;;;;;;;11.00;2.55;;;5.30;99.90;;;;;;5070139;28;20489;-81
2022/01/09 09:10:13;;;;;;;18.08;2.63;;;5.40;99.90;;;;;;5058124;28;20404;-81
2022/01/09 09:12:39;;;;;;;10.13;1.85;;;5.40;99.90;;;;;;5105302;28;20059;-81
2022/01/09 09:15:06;;;;;;;10.60;2.17;;;5.40;99.90;;;;;;5072604;28;20032;-82
2022/01/09 09:17:32;;;;;;;13.65;2.45;;;5.40;99.90;;;;;;5058128;28;20411;-82
2022/01/09 09:19:58;;;;;;;14.68;1.90;;;5.50;99.90;;;;;;5053381;28;20045;-80
2022/01/09 09:22:24;;;;;;;9.70;1.92;;;5.50;99.90;;;;;;5052422;28;20066;-80
2022/01/09 09:24:50;;;;;;;13.73;2.40;;;5.50;99.90;;;;;;5065024;28;20136;-80
2022/01/09 09:27:19;;;;;;;10.07;1.90;;;5.50;99.90;;;;;;5096334;28;20044;-80
2022/01/09 09:29:45;;;;;;;14.20;2.30;;;5.50;99.90;;;;;;5090827;28;20847;-79
2022/01/09 09:32:11;;;;;;;10.40;2.00;;;5.50;99.90;;;;;;5079534;28;20102;-78
2022/01/09 09:34:39;;;;;;;10.07;2.00;;;5.60;99.90;;;;;;5070938;28;20396;-78
2022/01/09 09:37:05;;;;;;;7.25;1.85;;;5.60;99.90;;;;;;5037802;28;20452;-79
2022/01/09 09:39:32;;;;;;;16.90;2.42;;;5.60;99.90;;;;;;5079233;28;20036;-81
2022/01/09 09:41:58;;;;;;;12.80;2.33;;;5.60;99.90;;;;;;5093634;28;20052;-80
2022/01/09 09:44:24;;;;;;;;;;;5.60;99.90;;;;;;5076670;28;20416;-83
2022/01/09 09:46:50;;;;;;;12.48;1.98;;;5.60;99.90;;;;;;5070177;28;19944;-81
2022/01/09 09:49:16;;;;;;;;;;;5.60;99.90;;;;;;5047396;28;20167;-82
2022/01/09 09:51:42;;;;;;;10.18;1.90;;;5.60;99.90;;;;;;5066851;28;20419;-82
2022/01/09 09:54:08;;;;;;;7.43;1.63;;;5.60;99.90;;;;;;5068856;28;20110;-79
2022/01/09 09:56:34;;;;;;;10.98;1.92;;;5.60;99.90;;;;;;5065660;28;20040;-80
2022/01/09 09:59:01;;;;;;;9.73;1.70;;;5.60;99.90;;;;;;5069710;28;20420;-80
2022/01/09 10:01:28;;;;;;;;;;;5.60;99.90;;;;;;5045268;28;20040;-80
2022/01/09 10:03:59;;;;;;;19.60;2.53;;;5.60;99.90;;;;;;5065749;28;19928;-80
2022/01/09 10:06:40;;;;;;;11.23;2.00;;;5.60;99.90;;;;;;5071101;28;20678;-83
2022/01/09 10:09:17;;;;;;;10.85;1.63;;;5.70;99.90;;;;;;5071870;28;20056;-82
2022/01/09 10:11:50;;;;;;;10.80;1.63;;;5.70;99.90;;;;;;5057928;28;20173;-81
2022/01/09 10:14:16;;;;;;;7.60;1.52;;;5.70;99.90;;;;;;5065951;28;20045;-82
2022/01/09 10:16:42;;;;;;;10.30;1.65;;;5.70;99.90;;;;;;5064959;28;21492;-81
2022/01/09 10:19:07;;;;;;;11.38;1.60;;;5.70;99.90;;;;;;5068588;28;20040;-81
2022/01/09 10:21:33;;;;;;;9.10;1.50;;;5.70;99.90;;;;;;5059261;28;20079;-80
2022/01/09 10:24:12;;;;;;;8.73;1.75;;;5.70;99.90;;;;;;5070883;28;20427;-79
2022/01/09 10:26:41;;;;;;;6.35;1.17;;;5.70;99.90;;;;;;5071519;28;20048;-80
2022/01/09 10:29:08;;;;;;;9.63;1.85;;;5.60;99.90;;;;;;5074934;28;20045;-81
2022/01/09 10:31:50;;;;;;;12.65;1.70;;;5.60;99.90;;;;;;5073462;28;20055;-82
2022/01/09 10:34:17;;;;;;;5.97;1.38;;;5.60;99.90;;;;;;5074900;28;20100;-80
2022/01/09 10:36:45;;;;;;;10.15;1.70;;;5.60;99.90;;;;;;5058511;28;20067;-80
2022/01/09 10:39:17;;;;;;;13.63;2.00;;;5.60;99.90;;;;;;5075756;28;20075;-81
2022/01/09 10:42:02;;;;;;;13.43;2.60;;;5.60;99.90;;;;;;5074435;28;20048;-81
2022/01/09 10:44:34;;;;;;;9.00;1.70;;;5.60;99.90;;;;;;5074823;28;20052;-80
2022/01/09 10:47:03;;;;;;;8.75;1.58;;;5.60;99.90;;;;;;5072906;28;20113;-79
2022/01/09 10:49:44;;;;;;;9.05;1.50;;;5.60;99.90;;;;;;5063652;28;20119;-81
2022/01/09 10:52:29;;;;;;;10.40;1.65;;;5.70;99.90;;;;;;5058111;28;20151;-81
2022/01/09 10:54:57;;;;;;;13.18;1.83;;;5.70;99.90;;;;;;5047754;28;20025;-79
2022/01/09 10:57:27;;;;;;;12.73;2.08;;;5.70;99.90;;;;;;5073015;28;20044;-81
2022/01/09 10:59:53;;;;;;;10.55;1.80;;;5.70;99.90;;;;;;5057371;28;20045;-81
2022/01/09 11:02:19;;;;;;;;;;;5.80;99.90;;;;;;5067196;28;20098;-82
2022/01/09 11:04:47;;;;;;;8.30;1.80;;;5.80;99.90;;;;;;5106518;28;20019;-81
2022/01/09 11:07:14;;;;;;;13.10;2.05;;;5.90;99.90;;;;;;5065754;28;20068;-81
2022/01/09 11:09:44;;;;;;;12.50;2.13;;;5.90;99.90;;;;;;5074977;28;20124;-82
2022/01/09 11:12:10;;;;;;;12.00;1.88;;;5.90;99.90;;;;;;5074802;28;20059;-81
2022/01/09 11:14:41;;;;;;;10.05;1.63;;;5.90;99.90;;;;;;5056332;28;20076;-82
2022/01/09 11:17:08;;;;;;;9.32;1.63;;;6.00;99.90;;;;;;5068923;28;20055;-81
2022/01/09 11:19:35;;;;;;;7.13;1.42;;;6.00;99.90;;;;;;5072879;28;20068;-81
2022/01/09 11:22:06;;;;;;;9.18;2.38;;;6.00;99.90;;;;;;5062287;28;20047;-81
2022/01/09 11:25:16;;;;;;;11.52;2.15;;;6.00;99.90;;;;;;5074101;28;20395;-81
2022/01/09 11:28:10;;;;;;;7.68;1.60;;;6.00;99.90;;;;;;5069623;28;20060;-80
2022/01/09 11:31:04;;;;;;;12.07;1.58;;;6.00;99.90;;;;;;5054614;28;20048;-80
2022/01/09 11:33:55;;;;;;;10.70;1.63;;;6.00;99.90;;;;;;5073654;28;20054;-81
2022/01/09 11:36:27;;;;;;;8.18;2.15;;;6.10;99.90;;;;;;5104817;28;20116;-77
2022/01/09 11:39:11;;;;;;;9.98;1.80;;;6.10;99.90;;;;;;5057587;28;20068;-77
2022/01/09 11:41:42;;;;;;;11.30;2.40;;;6.20;99.90;;;;;;5062969;28;20427;-78
2022/01/09 11:44:10;;;;;;;7.93;2.35;;;6.30;99.90;;;;;;5063633;28;20068;-77
2022/01/09 11:47:05;;;;;;;10.43;2.05;;;6.50;99.90;;;;;;5062201;28;20055;-78
2022/01/09 11:49:55;;;;;;;11.50;1.85;;;6.60;99.90;;;;;;5091040;28;20036;-81
2022/01/09 11:52:29;;;;;;;10.95;1.95;;;6.70;99.90;;;;;;5093445;28;20067;-79
2022/01/09 11:54:59;;;;;;;8.65;1.85;;;6.70;99.90;;;;;;5073350;28;20040;-80
2022/01/09 11:57:47;;;;;;;9.40;1.67;;;6.70;99.90;;;;;;5066193;28;20037;-79
2022/01/09 12:00:31;;;;;;;10.90;2.10;;;6.70;99.90;;;;;;5062315;28;20064;-80
2022/01/09 12:02:58;;;;;;;9.65;2.42;;;6.90;99.90;;;;;;5060265;28;20060;-77
2022/01/09 12:05:24;;;;;;;11.73;2.00;;;7.00;99.90;;;;;;5049252;28;20060;-78
2022/01/09 12:07:53;;;;;;;9.13;1.70;;;7.00;99.90;;;;;;5052598;28;20163;-78
2022/01/09 12:10:32;;;;;;;11.57;1.90;;;7.20;99.90;;;;;;5049303;28;20109;-77
2022/01/09 12:12:59;;;;;;;8.98;1.73;;;7.30;99.90;;;;;;5065060;28;20436;-77
2022/01/09 12:15:38;;;;;;;9.07;1.75;;;7.30;99.90;;;;;;5081010;28;20047;-77
2022/01/09 12:18:07;;;;;;;12.13;1.90;;;7.30;99.90;;;;;;5065975;28;20087;-76
2022/01/09 12:20:39;;;;;;;11.68;1.92;;;7.30;99.90;;;;;;5063738;28;20163;-78
2022/01/09 12:23:07;;;;;;;11.75;1.90;;;7.30;99.90;;;;;;5082962;28;20040;-77
2022/01/09 12:25:33;;;;;;;11.73;2.20;;;7.20;99.90;;;;;;5061875;28;20049;-76
2022/01/09 12:28:19;;;;;;;12.60;2.10;;;7.40;99.90;;;;;;5060948;28;20037;-77
2022/01/09 12:30:47;;;;;;;10.95;2.00;;;7.40;99.90;;;;;;5066057;28;20745;-76
2022/01/09 12:33:20;;;;;;;8.00;2.05;;;7.50;99.90;;;;;;5066694;28;20056;-77
2022/01/09 12:35:55;;;;;;;10.98;1.70;;;7.40;99.90;;;;;;5058886;28;20071;-77
2022/01/09 12:38:23;;;;;;;11.05;2.10;;;7.40;99.90;;;;;;5069952;28;20840;-76
2022/01/09 12:41:01;;;;;;;15.15;2.15;;;7.40;99.90;;;;;;5070936;28;20063;-76
2022/01/09 12:43:28;;;;;;;10.63;1.85;;;7.50;99.90;;;;;;5062969;28;20045;-76
2022/01/09 12:45:54;;;;;;;9.60;1.83;;;7.60;99.90;;;;;;5051539;28;20047;-77
2022/01/09 12:48:24;;;;;;;;;;;7.60;99.90;;;;;;5049093;28;20292;-79
2022/01/09 12:50:50;;;;;;;9.95;1.70;;;7.70;99.90;;;;;;5052339;28;20427;-79
2022/01/09 12:53:17;;;;;;;14.55;1.95;;;7.50;99.90;;;;;;5069654;28;20044;-78
2022/01/09 12:56:05;;;;;;;9.45;1.77;;;7.40;99.90;;;;;;5072703;28;20094;-78
2022/01/09 12:58:32;;;;;;;9.38;1.80;;;7.30;99.90;;;;;;5093863;28;20464;-77
2022/01/09 13:01:01;;;;;;;11.85;2.70;;;7.10;99.90;;;;;;5063338;28;20047;-77